^^
Station Historical Data
Daily Summary for January 27, 2017 Units:  English    Metric   Both
« Previous Day
Next Day »
Daily Weekly Monthly Yearly Custom
  High: Low: Average:
Temperature: 41.1 °F 35.2 °F 38.4 °F
Dew Point: 29.6 °F 22.9 °F 26.8 °F
Humidity: 70% 49% 63%
Wind Speed: 9.0mph 1.0mph 4mph
Wind Gust: 23.0mph - -
Wind- - SW
Pressure: 29.67 in 29.57 in -
Precipitation: 0.00 in    
Historical Graphs
 
 
Tabular Data for January 27, 2017
Time Temperature Dew Point Pressure Wind Wind Speed Wind Gust Humidity Rainfall Rate (Hourly) Conditions
00:00 40.0 °F 29.2 °F 29.57 in SSW 5.0 mph 10.0 mph 65% 0.00 in RA
00:10 40.0 °F 29.2 °F 29.57 in SSW 3.0 mph 10.0 mph 65% 0.00 in SCT
00:20 40.3 °F 29.1 °F 29.57 in SW 3.0 mph 12.0 mph 64% 0.00 in SCT
00:30 40.3 °F 29.5 °F 29.58 in WSW 1.0 mph 14.0 mph 65% 0.00 in SCT
00:40 40.4 °F 29.2 °F 29.58 in West 3.0 mph 11.0 mph 64% 0.00 in SCT
00:50 40.8 °F 28.8 °F 29.58 in WSW 5.0 mph 17.0 mph 62% 0.00 in SCT
01:00 40.8 °F 28.8 °F 29.59 in SW 3.0 mph 13.0 mph 62% 0.00 in SCT
01:20 40.4 °F 28.8 °F 29.59 in WSW 2.0 mph 8.0 mph 63% 0.00 in SCT
01:30 40.0 °F 28.5 °F 29.59 in WSW 2.0 mph 8.0 mph 63% 0.00 in SCT
01:40 39.8 °F 28.6 °F 29.60 in SSW 2.0 mph 7.0 mph 64% 0.00 in SCT
01:50 39.6 °F 28.8 °F 29.60 in SW 5.0 mph 9.0 mph 65% 0.00 in SCT
02:00 39.5 °F 29.1 °F 29.60 in SW 3.0 mph 11.0 mph 66% 0.00 in SCT
02:10 39.1 °F 29.1 °F 29.61 in SW 2.0 mph 12.0 mph 67% 0.00 in SCT
02:20 38.8 °F 29.1 °F 29.61 in SW 2.0 mph 10.0 mph 68% 0.00 in SCT
02:30 38.5 °F 29.2 °F 29.61 in SW 7.0 mph 10.0 mph 69% 0.00 in SCT
02:40 38.3 °F 29.0 °F 29.61 in SW 3.0 mph 10.0 mph 69% 0.00 in SCT
02:50 38.3 °F 29.0 °F 29.61 in SW 3.0 mph 12.0 mph 69% 0.00 in SCT
03:00 38.1 °F 29.2 °F 29.61 in SW 3.0 mph 12.0 mph 70% 0.00 in SCT
03:10 38.3 °F 29.0 °F 29.61 in SW 3.0 mph 12.0 mph 69% 0.00 in SCT
03:20 38.3 °F 29.0 °F 29.61 in SW 3.0 mph 12.0 mph 69% 0.00 in SCT
03:30 38.3 °F 29.0 °F 29.61 in SW 3.0 mph 13.0 mph 69% 0.00 in SCT
03:40 38.4 °F 29.1 °F 29.62 in SW 3.0 mph 12.0 mph 69% 0.00 in SCT
03:50 38.5 °F 29.2 °F 29.62 in SW 2.0 mph 9.0 mph 69% 0.00 in SCT
04:00 38.5 °F 29.2 °F 29.62 in SW 5.0 mph 12.0 mph 69% 0.00 in SCT
04:10 38.7 °F 29.4 °F 29.62 in SW 3.0 mph 12.0 mph 69% 0.00 in SCT
04:20 38.8 °F 29.1 °F 29.62 in WSW 2.0 mph 10.0 mph 68% 0.00 in SCT
04:30 38.9 °F 29.6 °F 29.62 in SW 3.0 mph 13.0 mph 69% 0.00 in SCT
04:40 38.7 °F 29.4 °F 29.62 in SW 2.0 mph 12.0 mph 69% 0.00 in SCT
04:50 38.6 °F 29.3 °F 29.62 in SW 2.0 mph 12.0 mph 69% 0.00 in SCT
05:00 38.6 °F 29.3 °F 29.63 in WSW 5.0 mph 10.0 mph 69% 0.00 in SCT
05:10 38.7 °F 29.4 °F 29.63 in WSW 3.0 mph 8.0 mph 69% 0.00 in BKN
05:20 38.6 °F 29.3 °F 29.63 in SW 5.0 mph 8.0 mph 69% 0.00 in BKN
05:30 38.5 °F 28.9 °F 29.62 in SW 3.0 mph 12.0 mph 68% 0.00 in BKN
05:40 38.4 °F 28.7 °F 29.62 in SW 6.0 mph 14.0 mph 68% 0.00 in BKN
05:50 38.3 °F 28.7 °F 29.63 in WSW 3.0 mph 15.0 mph 68% 0.00 in BKN
06:00 38.3 °F 28.3 °F 29.63 in WSW 5.0 mph 12.0 mph 67% 0.00 in BKN
06:10 38.3 °F 27.9 °F 29.63 in WSW 5.0 mph 12.0 mph 66% 0.00 in SCT
06:20 38.3 °F 27.6 °F 29.63 in SW 3.0 mph 12.0 mph 65% 0.00 in SCT
06:30 38.3 °F 27.6 °F 29.63 in SSW 6.0 mph 14.0 mph 65% 0.00 in SCT
06:40 38.5 °F 27.4 °F 29.64 in SSW 3.0 mph 14.0 mph 64% 0.00 in SCT
06:50 38.6 °F 27.4 °F 29.64 in SW 3.0 mph 12.0 mph 64% 0.00 in SCT
07:00 38.5 °F 27.4 °F 29.64 in SW 3.0 mph 15.0 mph 64% 0.00 in SCT
07:10 38.5 °F 27.7 °F 29.64 in SW 2.0 mph 10.0 mph 65% 0.00 in BKN
07:20 38.4 °F 28.0 °F 29.65 in SW 3.0 mph 12.0 mph 66% 0.00 in BKN
07:30 38.4 °F 28.4 °F 29.65 in SW 6.0 mph 12.0 mph 67% 0.00 in BKN
07:40 38.3 °F 28.7 °F 29.65 in WSW 2.0 mph 7.0 mph 68% 0.00 in BKN
07:50 38.3 °F 28.3 °F 29.65 in WSW 2.0 mph 10.0 mph 67% 0.00 in BKN
07:55 38.3 °F 28.3 °F 29.65 in SW 2.0 mph 5.0 mph 67% 0.00 in BKN
08:10 38.3 °F 28.3 °F 29.66 in SW 3.0 mph 17.0 mph 67% 0.00 in BKN
08:20 38.2 °F 28.6 °F 29.66 in WSW 3.0 mph 8.0 mph 68% 0.00 in BKN
08:30 38.3 °F 28.3 °F 29.66 in SW 7.0 mph 14.0 mph 67% 0.00 in BKN
09:00 38.4 °F 28.7 °F 29.67 in WSW 3.0 mph 16.0 mph 68% 0.00 in BKN
09:10 38.4 °F 28.8 °F 29.67 in SW 5.0 mph 12.0 mph 68% 0.00 in BKN
09:20 38.7 °F 28.7 °F 29.67 in SW 6.0 mph 12.0 mph 67% 0.00 in BKN
09:30 38.9 °F 28.5 °F 29.67 in WSW 5.0 mph 16.0 mph 66% 0.00 in BKN
09:40 39.1 °F 28.7 °F 29.67 in WSW 6.0 mph 12.0 mph 66% 0.00 in BKN
09:50 39.2 °F 28.1 °F 29.67 in SW 7.0 mph 16.0 mph 64% 0.00 in BKN
10:10 39.1 °F 27.2 °F 29.67 in WSW 9.0 mph 16.0 mph 62% 0.00 in BKN
10:20 39.1 °F 27.6 °F 29.66 in WSW 6.0 mph 15.0 mph 63% 0.00 in BKN
10:30 39.3 °F 27.4 °F 29.66 in WSW 6.0 mph 14.0 mph 62% 0.00 in BKN
10:50 40.9 °F 26.8 °F 29.65 in SW 6.0 mph 15.0 mph 57% 0.00 in BKN
11:00 40.3 °F 25.9 °F 29.65 in SW 6.0 mph 14.0 mph 56% 0.00 in BKN
11:10 39.9 °F 25.5 °F 29.65 in SW 5.0 mph 15.0 mph 56% 0.00 in BKN
11:20 40.0 °F 25.6 °F 29.65 in SW 5.0 mph 13.0 mph 56% 0.00 in BKN
11:30 40.1 °F 25.2 °F 29.64 in WSW 8.0 mph 13.0 mph 55% 0.00 in BKN
11:40 39.9 °F 25.5 °F 29.64 in SW 5.0 mph 20.0 mph 56% 0.00 in BKN
11:50 40.0 °F 25.1 °F 29.63 in SW 5.0 mph 13.0 mph 55% 0.00 in BKN
12:00 39.8 °F 24.5 °F 29.63 in WSW 8.0 mph 19.0 mph 54% 0.00 in BKN
12:10 39.8 °F 24.0 °F 29.62 in SW 5.0 mph 17.0 mph 53% 0.00 in BKN
12:20 40.1 °F 23.9 °F 29.61 in WSW 3.0 mph 17.0 mph 52% 0.00 in BKN
12:30 40.8 °F 23.6 °F 29.61 in SW 7.0 mph 17.0 mph 50% 0.00 in BKN
12:40 40.6 °F 22.9 °F 29.60 in SW 7.0 mph 15.0 mph 49% 0.00 in BKN
12:50 40.4 °F 23.2 °F 29.60 in SSW 3.0 mph 23.0 mph 50% 0.00 in BKN
13:00 40.1 °F 22.9 °F 29.60 in SW 7.0 mph 16.0 mph 50% 0.00 in BKN
13:10 40.0 °F 23.3 °F 29.59 in SSW 5.0 mph 16.0 mph 51% 0.00 in BKN
13:20 40.4 °F 24.1 °F 29.59 in SW 5.0 mph 13.0 mph 52% 0.00 in BKN
13:30 41.1 °F 24.3 °F 29.58 in WSW 6.0 mph 14.0 mph 51% 0.00 in BKN
13:40 40.7 °F 24.0 °F 29.58 in SW 7.0 mph 17.0 mph 51% 0.00 in BKN
13:50 40.4 °F 24.6 °F 29.58 in SSW 8.0 mph 14.0 mph 53% 0.00 in BKN
14:10 40.2 °F 24.4 °F 29.58 in SSW 5.0 mph 14.0 mph 53% 0.00 in BKN
14:30 40.0 °F 24.7 °F 29.57 in WSW 3.0 mph 12.0 mph 54% 0.00 in BKN
15:10 39.2 °F 24.8 °F 29.58 in WSW 3.0 mph 17.0 mph 56% 0.00 in BKN
15:30 39.4 °F 25.0 °F 29.58 in WSW 3.0 mph 17.0 mph 56% 0.00 in BKN
15:50 39.3 °F 25.3 °F 29.58 in SW 3.0 mph 12.0 mph 57% 0.00 in BKN
16:00 39.3 °F 25.3 °F 29.59 in WSW 5.0 mph 17.0 mph 57% 0.00 in BKN
16:10 39.3 °F 25.7 °F 29.59 in WSW 3.0 mph 10.0 mph 58% 0.00 in BKN
16:30 39.1 °F 25.6 °F 29.59 in WSW 1.0 mph 10.0 mph 58% 0.00 in BKN
16:40 39.1 °F 25.1 °F 29.59 in SSW 1.0 mph 12.0 mph 57% 0.00 in BKN
16:50 39.1 °F 25.1 °F 29.59 in SW 2.0 mph 5.0 mph 57% 0.00 in BKN
17:00 39.1 °F 23.8 °F 29.60 in WNW 3.0 mph 9.0 mph 54% 0.00 in BKN
17:10 39.0 °F 24.2 °F 29.60 in SW 3.0 mph 8.0 mph 55% 0.00 in BKN
17:20 38.9 °F 24.1 °F 29.60 in West 6.0 mph 12.0 mph 55% 0.00 in BKN
17:30 38.8 °F 24.4 °F 29.60 in WSW 2.0 mph 12.0 mph 56% 0.00 in BKN
17:40 38.7 °F 24.3 °F 29.60 in SW 2.0 mph 12.0 mph 56% 0.00 in BKN
17:50 38.5 °F 25.0 °F 29.60 in WSW 5.0 mph 12.0 mph 58% 0.00 in BKN
18:00 38.4 °F 24.9 °F 29.60 in WSW 3.0 mph 12.0 mph 58% 0.00 in BKN
18:10 38.3 °F 26.0 °F 29.60 in SW 3.0 mph 12.0 mph 61% 0.00 in BKN
18:20 38.1 °F 25.1 °F 29.61 in SW 5.0 mph 14.0 mph 59% 0.00 in BKN
18:30 38.0 °F 25.7 °F 29.61 in SW 6.0 mph 10.0 mph 61% 0.00 in BKN
18:40 37.8 °F 25.6 °F 29.61 in WSW 5.0 mph 12.0 mph 61% 0.00 in BKN
18:50 37.7 °F 25.8 °F 29.61 in WSW 1.0 mph 12.0 mph 62% 0.00 in BKN
19:00 37.6 °F 25.7 °F 29.61 in SW 5.0 mph 14.0 mph 62% 0.00 in BKN
19:10 37.5 °F 26.0 °F 29.62 in SW 3.0 mph 16.0 mph 63% 0.00 in SCT
19:20 37.3 °F 25.8 °F 29.62 in WSW 3.0 mph 16.0 mph 63% 0.00 in SCT
19:30 37.1 °F 26.0 °F 29.62 in WSW 2.0 mph 12.0 mph 64% 0.00 in SCT
19:40 37.1 °F 26.0 °F 29.62 in SW 5.0 mph 18.0 mph 64% 0.00 in SCT
19:50 37.0 °F 25.9 °F 29.62 in SW 5.0 mph 18.0 mph 64% 0.00 in SCT
20:00 36.9 °F 26.2 °F 29.62 in WSW 5.0 mph 14.0 mph 65% 0.00 in SCT
20:10 36.7 °F 26.0 °F 29.63 in SW 2.0 mph 12.0 mph 65% 0.00 in BKN
20:20 36.6 °F 25.6 °F 29.63 in WSW 5.0 mph 10.0 mph 64% 0.00 in BKN
20:30 36.6 °F 25.9 °F 29.63 in WSW 2.0 mph 10.0 mph 65% 0.00 in BKN
20:40 36.7 °F 25.7 °F 29.63 in WSW 3.0 mph 13.0 mph 64% 0.00 in BKN
20:50 36.6 °F 26.0 °F 29.63 in WSW 3.0 mph 12.0 mph 65% 0.00 in BKN
21:00 36.5 °F 26.2 °F 29.63 in WSW 2.0 mph 9.0 mph 66% 0.00 in BKN
21:10 36.3 °F 26.0 °F 29.64 in SW 3.0 mph 12.0 mph 66% 0.00 in OVC
21:20 36.1 °F 26.5 °F 29.64 in SW 3.0 mph 16.0 mph 68% 0.00 in OVC
21:30 35.8 °F 26.3 °F 29.63 in SW 5.0 mph 15.0 mph 68% 0.00 in OVC
21:40 35.5 °F 26.3 °F 29.63 in SW 5.0 mph 10.0 mph 69% 0.00 in OVC
21:50 35.4 °F 25.9 °F 29.64 in WSW 3.0 mph 15.0 mph 68% 0.00 in OVC
22:00 35.3 °F 26.1 °F 29.63 in SW 2.0 mph 12.0 mph 69% 0.00 in OVC
22:10 35.2 °F 25.7 °F 29.63 in WSW 5.0 mph 13.0 mph 68% 0.00 in FEW
22:20 35.4 °F 25.5 °F 29.63 in SW 5.0 mph 12.0 mph 67% 0.00 in FEW
22:30 35.4 °F 25.5 °F 29.64 in West 5.0 mph 10.0 mph 67% 0.00 in FEW
22:40 35.5 °F 25.6 °F 29.64 in WSW 1.0 mph 8.0 mph 67% 0.00 in FEW
22:50 35.5 °F 25.3 °F 29.63 in WSW 5.0 mph 12.0 mph 66% 0.00 in FEW
23:00 35.5 °F 25.3 °F 29.63 in WSW 7.0 mph 12.0 mph 66% 0.00 in FEW
23:10 35.4 °F 25.2 °F 29.63 in WSW 5.0 mph 10.0 mph 66% 0.00 in SCT
23:20 35.4 °F 24.8 °F 29.63 in WSW 2.0 mph 13.0 mph 65% 0.00 in SCT
23:30 35.4 °F 24.8 °F 29.64 in SW 3.0 mph 13.0 mph 65% 0.00 in SCT
23:40 35.3 °F 24.3 °F 29.63 in SW 3.0 mph 12.0 mph 64% 0.00 in SCT
23:50 35.2 °F 24.2 °F 29.63 in SW 5.0 mph 12.0 mph 64% 0.00 in SCT
TarryTown NY Weather
Compliments of Weather Underground - 1.75 mb